sensor_id;sensor_type;location;lat;lon;timestamp;P1;durP1;ratioP1;P2;durP2;ratioP2
51780;SDS011;37844;57.126;24.288;2022-12-18T00:00:40;99.30;;;41.90;;
51780;SDS011;37844;57.126;24.288;2022-12-18T00:03:06;104.22;;;41.70;;
51780;SDS011;37844;57.126;24.288;2022-12-18T00:05:32;106.13;;;40.70;;
51780;SDS011;37844;57.126;24.288;2022-12-18T00:07:58;123.65;;;42.05;;
51780;SDS011;37844;57.126;24.288;2022-12-18T00:10:23;134.40;;;48.20;;
51780;SDS011;37844;57.126;24.288;2022-12-18T00:12:49;121.85;;;44.55;;
51780;SDS011;37844;57.126;24.288;2022-12-18T00:15:14;102.35;;;43.42;;
51780;SDS011;37844;57.126;24.288;2022-12-18T00:17:40;102.47;;;42.70;;
51780;SDS011;37844;57.126;24.288;2022-12-18T00:20:05;100.55;;;39.70;;
51780;SDS011;37844;57.126;24.288;2022-12-18T00:22:31;98.65;;;44.78;;
51780;SDS011;37844;57.126;24.288;2022-12-18T00:24:57;118.55;;;45.55;;
51780;SDS011;37844;57.126;24.288;2022-12-18T00:27:22;108.95;;;42.85;;
51780;SDS011;37844;57.126;24.288;2022-12-18T00:29:47;109.53;;;45.47;;
51780;SDS011;37844;57.126;24.288;2022-12-18T00:32:14;105.20;;;42.45;;
51780;SDS011;37844;57.126;24.288;2022-12-18T00:34:39;111.45;;;45.00;;
51780;SDS011;37844;57.126;24.288;2022-12-18T00:37:05;97.38;;;40.42;;
51780;SDS011;37844;57.126;24.288;2022-12-18T00:39:30;120.50;;;45.38;;
51780;SDS011;37844;57.126;24.288;2022-12-18T00:41:55;118.07;;;42.75;;
51780;SDS011;37844;57.126;24.288;2022-12-18T00:44:39;120.75;;;44.60;;
51780;SDS011;37844;57.126;24.288;2022-12-18T00:47:05;121.53;;;45.28;;
51780;SDS011;37844;57.126;24.288;2022-12-18T00:49:30;108.03;;;43.65;;
51780;SDS011;37844;57.126;24.288;2022-12-18T00:51:55;125.90;;;50.25;;
51780;SDS011;37844;57.126;24.288;2022-12-18T00:54:21;128.27;;;50.22;;
51780;SDS011;37844;57.126;24.288;2022-12-18T00:56:46;130.38;;;48.88;;
51780;SDS011;37844;57.126;24.288;2022-12-18T00:59:12;116.55;;;48.60;;
51780;SDS011;37844;57.126;24.288;2022-12-18T01:01:37;123.68;;;52.03;;
51780;SDS011;37844;57.126;24.288;2022-12-18T01:04:03;126.55;;;51.22;;
51780;SDS011;37844;57.126;24.288;2022-12-18T01:06:28;140.30;;;55.60;;
51780;SDS011;37844;57.126;24.288;2022-12-18T01:08:54;143.15;;;55.95;;
51780;SDS011;37844;57.126;24.288;2022-12-18T01:11:20;138.70;;;54.97;;
51780;SDS011;37844;57.126;24.288;2022-12-18T01:13:47;134.00;;;50.30;;
51780;SDS011;37844;57.126;24.288;2022-12-18T01:16:13;143.93;;;55.10;;
51780;SDS011;37844;57.126;24.288;2022-12-18T01:18:40;141.25;;;54.88;;
51780;SDS011;37844;57.126;24.288;2022-12-18T01:21:07;143.30;;;51.65;;
51780;SDS011;37844;57.126;24.288;2022-12-18T01:23:34;156.50;;;60.10;;
51780;SDS011;37844;57.126;24.288;2022-12-18T01:26:03;141.70;;;58.10;;
51780;SDS011;37844;57.126;24.288;2022-12-18T01:28:32;168.95;;;59.20;;
51780;SDS011;37844;57.126;24.288;2022-12-18T01:30:57;162.13;;;56.10;;
51780;SDS011;37844;57.126;24.288;2022-12-18T01:33:44;162.85;;;61.67;;
51780;SDS011;37844;57.126;24.288;2022-12-18T01:36:20;169.68;;;56.65;;
51780;SDS011;37844;57.126;24.288;2022-12-18T01:38:54;160.68;;;59.45;;
51780;SDS011;37844;57.126;24.288;2022-12-18T01:41:22;178.07;;;59.95;;
51780;SDS011;37844;57.126;24.288;2022-12-18T01:46:17;149.63;;;56.08;;
51780;SDS011;37844;57.126;24.288;2022-12-18T01:48:44;159.27;;;54.20;;
51780;SDS011;37844;57.126;24.288;2022-12-18T01:51:12;166.95;;;57.92;;
51780;SDS011;37844;57.126;24.288;2022-12-18T01:53:39;160.18;;;55.35;;
51780;SDS011;37844;57.126;24.288;2022-12-18T01:56:06;139.75;;;51.30;;
51780;SDS011;37844;57.126;24.288;2022-12-18T01:58:39;162.13;;;62.67;;
51780;SDS011;37844;57.126;24.288;2022-12-18T02:01:07;149.20;;;58.20;;
51780;SDS011;37844;57.126;24.288;2022-12-18T02:03:33;153.40;;;58.88;;
51780;SDS011;37844;57.126;24.288;2022-12-18T02:08:26;137.48;;;54.22;;
51780;SDS011;37844;57.126;24.288;2022-12-18T02:22:06;155.50;;;61.17;;
51780;SDS011;37844;57.126;24.288;2022-12-18T02:27:36;148.23;;;56.15;;
51780;SDS011;37844;57.126;24.288;2022-12-18T02:30:03;145.93;;;58.22;;
51780;SDS011;37844;57.126;24.288;2022-12-18T02:32:31;138.70;;;50.08;;
51780;SDS011;37844;57.126;24.288;2022-12-18T02:35:01;147.43;;;57.65;;
51780;SDS011;37844;57.126;24.288;2022-12-18T02:37:29;140.68;;;54.00;;
51780;SDS011;37844;57.126;24.288;2022-12-18T02:39:57;137.70;;;52.85;;
51780;SDS011;37844;57.126;24.288;2022-12-18T02:42:24;141.77;;;54.28;;
51780;SDS011;37844;57.126;24.288;2022-12-18T02:44:50;131.52;;;49.22;;
51780;SDS011;37844;57.126;24.288;2022-12-18T02:47:17;167.65;;;57.97;;
51780;SDS011;37844;57.126;24.288;2022-12-18T02:57:41;150.27;;;54.45;;
51780;SDS011;37844;57.126;24.288;2022-12-18T03:00:57;135.65;;;52.97;;
51780;SDS011;37844;57.126;24.288;2022-12-18T03:03:09;144.57;;;54.97;;
51780;SDS011;37844;57.126;24.288;2022-12-18T03:05:49;139.55;;;52.40;;
51780;SDS011;37844;57.126;24.288;2022-12-18T03:08:26;145.95;;;55.90;;
51780;SDS011;37844;57.126;24.288;2022-12-18T03:10:56;133.63;;;52.28;;
51780;SDS011;37844;57.126;24.288;2022-12-18T03:13:27;151.63;;;59.35;;
51780;SDS011;37844;57.126;24.288;2022-12-18T03:15:56;153.05;;;54.97;;
51780;SDS011;37844;57.126;24.288;2022-12-18T03:18:46;151.23;;;55.58;;
51780;SDS011;37844;57.126;24.288;2022-12-18T03:21:13;167.55;;;52.95;;
51780;SDS011;37844;57.126;24.288;2022-12-18T03:23:44;133.00;;;49.08;;
51780;SDS011;37844;57.126;24.288;2022-12-18T03:26:14;138.80;;;51.60;;
51780;SDS011;37844;57.126;24.288;2022-12-18T03:28:49;154.77;;;53.40;;
51780;SDS011;37844;57.126;24.288;2022-12-18T03:31:16;145.55;;;50.80;;
51780;SDS011;37844;57.126;24.288;2022-12-18T03:33:52;131.55;;;49.65;;
51780;SDS011;37844;57.126;24.288;2022-12-18T03:36:20;134.63;;;47.10;;
51780;SDS011;37844;57.126;24.288;2022-12-18T03:38:46;145.50;;;54.28;;
51780;SDS011;37844;57.126;24.288;2022-12-18T03:44:10;130.00;;;47.95;;
51780;SDS011;37844;57.126;24.288;2022-12-18T03:49:34;136.57;;;46.55;;
51780;SDS011;37844;57.126;24.288;2022-12-18T03:52:09;114.47;;;48.55;;
51780;SDS011;37844;57.126;24.288;2022-12-18T03:54:38;127.72;;;50.38;;
51780;SDS011;37844;57.126;24.288;2022-12-18T03:57:07;128.35;;;45.47;;
51780;SDS011;37844;57.126;24.288;2022-12-18T03:59:37;128.57;;;49.90;;
51780;SDS011;37844;57.126;24.288;2022-12-18T04:02:04;132.55;;;49.78;;
51780;SDS011;37844;57.126;24.288;2022-12-18T04:04:33;125.30;;;45.50;;
51780;SDS011;37844;57.126;24.288;2022-12-18T04:07:00;118.75;;;48.25;;
51780;SDS011;37844;57.126;24.288;2022-12-18T04:09:26;124.30;;;47.72;;
51780;SDS011;37844;57.126;24.288;2022-12-18T04:11:52;121.00;;;44.50;;
51780;SDS011;37844;57.126;24.288;2022-12-18T04:14:18;117.03;;;41.25;;
51780;SDS011;37844;57.126;24.288;2022-12-18T04:16:43;128.50;;;47.05;;
51780;SDS011;37844;57.126;24.288;2022-12-18T04:19:09;111.60;;;45.30;;
51780;SDS011;37844;57.126;24.288;2022-12-18T04:21:34;119.65;;;45.13;;
51780;SDS011;37844;57.126;24.288;2022-12-18T04:23:59;116.07;;;43.45;;
51780;SDS011;37844;57.126;24.288;2022-12-18T04:26:25;111.63;;;45.50;;
51780;SDS011;37844;57.126;24.288;2022-12-18T04:28:50;111.10;;;41.05;;
51780;SDS011;37844;57.126;24.288;2022-12-18T04:31:16;124.15;;;46.83;;
51780;SDS011;37844;57.126;24.288;2022-12-18T04:33:41;120.13;;;43.53;;
51780;SDS011;37844;57.126;24.288;2022-12-18T04:36:07;115.15;;;42.72;;
51780;SDS011;37844;57.126;24.288;2022-12-18T04:38:32;123.65;;;47.58;;
51780;SDS011;37844;57.126;24.288;2022-12-18T04:40:58;93.32;;;38.83;;
51780;SDS011;37844;57.126;24.288;2022-12-18T04:43:23;106.00;;;41.85;;
51780;SDS011;37844;57.126;24.288;2022-12-18T04:45:49;117.28;;;42.88;;
51780;SDS011;37844;57.126;24.288;2022-12-18T04:48:14;107.90;;;44.20;;
51780;SDS011;37844;57.126;24.288;2022-12-18T04:50:40;106.43;;;42.40;;
51780;SDS011;37844;57.126;24.288;2022-12-18T04:53:05;106.18;;;45.53;;
51780;SDS011;37844;57.126;24.288;2022-12-18T04:55:30;105.93;;;41.72;;
51780;SDS011;37844;57.126;24.288;2022-12-18T04:57:56;113.15;;;41.03;;
51780;SDS011;37844;57.126;24.288;2022-12-18T05:00:21;92.85;;;42.80;;
51780;SDS011;37844;57.126;24.288;2022-12-18T05:02:47;114.78;;;45.88;;
51780;SDS011;37844;57.126;24.288;2022-12-18T05:05:13;99.72;;;38.70;;
51780;SDS011;37844;57.126;24.288;2022-12-18T05:07:38;103.45;;;38.67;;
51780;SDS011;37844;57.126;24.288;2022-12-18T05:10:04;111.97;;;39.15;;
51780;SDS011;37844;57.126;24.288;2022-12-18T05:12:33;93.75;;;39.60;;
51780;SDS011;37844;57.126;24.288;2022-12-18T05:14:58;101.93;;;41.92;;
51780;SDS011;37844;57.126;24.288;2022-12-18T05:17:23;87.60;;;37.38;;
51780;SDS011;37844;57.126;24.288;2022-12-18T05:19:49;91.63;;;40.22;;
51780;SDS011;37844;57.126;24.288;2022-12-18T05:22:14;104.15;;;41.63;;
51780;SDS011;37844;57.126;24.288;2022-12-18T05:24:40;102.55;;;40.08;;
51780;SDS011;37844;57.126;24.288;2022-12-18T05:27:05;92.53;;;36.28;;
51780;SDS011;37844;57.126;24.288;2022-12-18T05:29:31;82.03;;;34.72;;
51780;SDS011;37844;57.126;24.288;2022-12-18T05:31:56;89.15;;;36.20;;
51780;SDS011;37844;57.126;24.288;2022-12-18T05:34:22;88.22;;;37.25;;
51780;SDS011;37844;57.126;24.288;2022-12-18T05:36:47;93.80;;;40.30;;
51780;SDS011;37844;57.126;24.288;2022-12-18T05:39:12;83.00;;;35.28;;
51780;SDS011;37844;57.126;24.288;2022-12-18T05:41:38;91.85;;;36.30;;
51780;SDS011;37844;57.126;24.288;2022-12-18T05:44:03;76.43;;;36.55;;
51780;SDS011;37844;57.126;24.288;2022-12-18T05:46:29;83.20;;;38.17;;
51780;SDS011;37844;57.126;24.288;2022-12-18T05:48:55;94.63;;;37.10;;
51780;SDS011;37844;57.126;24.288;2022-12-18T05:51:21;84.80;;;35.58;;
51780;SDS011;37844;57.126;24.288;2022-12-18T05:53:47;99.30;;;39.78;;
51780;SDS011;37844;57.126;24.288;2022-12-18T05:56:14;86.47;;;33.90;;
51780;SDS011;37844;57.126;24.288;2022-12-18T05:58:42;75.53;;;34.42;;
51780;SDS011;37844;57.126;24.288;2022-12-18T06:03:33;92.50;;;38.30;;
51780;SDS011;37844;57.126;24.288;2022-12-18T06:05:58;82.35;;;33.47;;
51780;SDS011;37844;57.126;24.288;2022-12-18T06:08:24;79.45;;;32.83;;
51780;SDS011;37844;57.126;24.288;2022-12-18T06:10:50;75.15;;;35.45;;
51780;SDS011;37844;57.126;24.288;2022-12-18T06:13:17;82.85;;;33.53;;
51780;SDS011;37844;57.126;24.288;2022-12-18T06:15:43;72.78;;;36.85;;
51780;SDS011;37844;57.126;24.288;2022-12-18T06:18:08;92.90;;;35.92;;
51780;SDS011;37844;57.126;24.288;2022-12-18T06:20:34;67.90;;;31.75;;
51780;SDS011;37844;57.126;24.288;2022-12-18T06:23:01;87.88;;;34.55;;
51780;SDS011;37844;57.126;24.288;2022-12-18T06:25:27;80.15;;;34.55;;
51780;SDS011;37844;57.126;24.288;2022-12-18T06:27:52;78.00;;;34.63;;
51780;SDS011;37844;57.126;24.288;2022-12-18T06:30:18;67.55;;;34.22;;
51780;SDS011;37844;57.126;24.288;2022-12-18T06:32:44;79.15;;;35.28;;
51780;SDS011;37844;57.126;24.288;2022-12-18T06:35:09;77.70;;;35.25;;
51780;SDS011;37844;57.126;24.288;2022-12-18T06:37:35;68.50;;;30.83;;
51780;SDS011;37844;57.126;24.288;2022-12-18T06:40:01;79.82;;;35.80;;
51780;SDS011;37844;57.126;24.288;2022-12-18T06:42:26;76.30;;;31.52;;
51780;SDS011;37844;57.126;24.288;2022-12-18T06:44:53;74.90;;;29.73;;
51780;SDS011;37844;57.126;24.288;2022-12-18T06:47:18;64.15;;;30.50;;
51780;SDS011;37844;57.126;24.288;2022-12-18T06:49:44;76.43;;;33.17;;
51780;SDS011;37844;57.126;24.288;2022-12-18T06:52:09;71.95;;;31.55;;
51780;SDS011;37844;57.126;24.288;2022-12-18T06:54:34;79.70;;;34.08;;
51780;SDS011;37844;57.126;24.288;2022-12-18T06:57:00;71.63;;;31.02;;
51780;SDS011;37844;57.126;24.288;2022-12-18T06:59:25;71.88;;;30.73;;
51780;SDS011;37844;57.126;24.288;2022-12-18T07:01:51;67.20;;;32.58;;
51780;SDS011;37844;57.126;24.288;2022-12-18T07:04:16;76.30;;;32.42;;
51780;SDS011;37844;57.126;24.288;2022-12-18T07:06:42;58.58;;;30.15;;
51780;SDS011;37844;57.126;24.288;2022-12-18T07:09:07;62.80;;;29.48;;
51780;SDS011;37844;57.126;24.288;2022-12-18T07:11:33;83.65;;;30.23;;
51780;SDS011;37844;57.126;24.288;2022-12-18T07:13:58;69.07;;;30.73;;
51780;SDS011;37844;57.126;24.288;2022-12-18T07:16:24;69.30;;;28.95;;
51780;SDS011;37844;57.126;24.288;2022-12-18T07:18:50;63.47;;;31.10;;
51780;SDS011;37844;57.126;24.288;2022-12-18T07:21:16;76.93;;;31.35;;
51780;SDS011;37844;57.126;24.288;2022-12-18T07:23:43;74.43;;;34.13;;
51780;SDS011;37844;57.126;24.288;2022-12-18T07:26:12;66.85;;;29.88;;
51780;SDS011;37844;57.126;24.288;2022-12-18T07:28:39;59.00;;;26.88;;
51780;SDS011;37844;57.126;24.288;2022-12-18T07:31:06;68.20;;;28.85;;
51780;SDS011;37844;57.126;24.288;2022-12-18T07:33:33;62.70;;;28.40;;
51780;SDS011;37844;57.126;24.288;2022-12-18T07:36:02;64.80;;;30.70;;
51780;SDS011;37844;57.126;24.288;2022-12-18T07:38:29;62.85;;;29.40;;
51780;SDS011;37844;57.126;24.288;2022-12-18T07:41:29;65.85;;;28.90;;
51780;SDS011;37844;57.126;24.288;2022-12-18T07:43:47;52.63;;;26.85;;
51780;SDS011;37844;57.126;24.288;2022-12-18T07:46:13;51.35;;;26.20;;
51780;SDS011;37844;57.126;24.288;2022-12-18T07:48:39;54.00;;;27.80;;
51780;SDS011;37844;57.126;24.288;2022-12-18T07:51:08;55.70;;;24.73;;
51780;SDS011;37844;57.126;24.288;2022-12-18T07:53:37;44.33;;;24.77;;
51780;SDS011;37844;57.126;24.288;2022-12-18T07:56:05;51.63;;;23.20;;
51780;SDS011;37844;57.126;24.288;2022-12-18T07:58:32;53.92;;;26.00;;
51780;SDS011;37844;57.126;24.288;2022-12-18T08:01:02;48.05;;;24.00;;
51780;SDS011;37844;57.126;24.288;2022-12-18T08:03:31;61.40;;;27.17;;
51780;SDS011;37844;57.126;24.288;2022-12-18T08:05:58;47.53;;;24.45;;
51780;SDS011;37844;57.126;24.288;2022-12-18T08:08:28;47.45;;;22.73;;
51780;SDS011;37844;57.126;24.288;2022-12-18T08:10:54;51.50;;;23.08;;
51780;SDS011;37844;57.126;24.288;2022-12-18T08:13:20;60.85;;;25.75;;
51780;SDS011;37844;57.126;24.288;2022-12-18T08:15:45;55.25;;;26.17;;
51780;SDS011;37844;57.126;24.288;2022-12-18T08:18:11;67.28;;;29.50;;
51780;SDS011;37844;57.126;24.288;2022-12-18T08:20:36;47.97;;;25.77;;
51780;SDS011;37844;57.126;24.288;2022-12-18T08:23:08;52.60;;;24.63;;
51780;SDS011;37844;57.126;24.288;2022-12-18T08:25:34;47.58;;;20.90;;
51780;SDS011;37844;57.126;24.288;2022-12-18T08:28:06;42.97;;;21.67;;
51780;SDS011;37844;57.126;24.288;2022-12-18T08:30:31;51.15;;;24.10;;
51780;SDS011;37844;57.126;24.288;2022-12-18T08:32:56;38.95;;;22.13;;
51780;SDS011;37844;57.126;24.288;2022-12-18T08:35:22;40.55;;;21.20;;
51780;SDS011;37844;57.126;24.288;2022-12-18T08:37:47;43.08;;;19.83;;
51780;SDS011;37844;57.126;24.288;2022-12-18T08:40:13;40.25;;;22.35;;
51780;SDS011;37844;57.126;24.288;2022-12-18T08:42:39;32.85;;;18.65;;
51780;SDS011;37844;57.126;24.288;2022-12-18T08:45:33;37.58;;;19.00;;
51780;SDS011;37844;57.126;24.288;2022-12-18T08:47:59;38.97;;;19.70;;
51780;SDS011;37844;57.126;24.288;2022-12-18T08:50:24;39.63;;;19.70;;
51780;SDS011;37844;57.126;24.288;2022-12-18T08:52:50;43.03;;;20.40;;
51780;SDS011;37844;57.126;24.288;2022-12-18T08:55:15;32.05;;;18.63;;
51780;SDS011;37844;57.126;24.288;2022-12-18T08:57:40;35.47;;;18.42;;
51780;SDS011;37844;57.126;24.288;2022-12-18T09:00:06;48.95;;;24.23;;
51780;SDS011;37844;57.126;24.288;2022-12-18T09:02:32;48.00;;;24.23;;
51780;SDS011;37844;57.126;24.288;2022-12-18T09:04:58;36.38;;;20.35;;
51780;SDS011;37844;57.126;24.288;2022-12-18T09:07:23;36.60;;;19.45;;
51780;SDS011;37844;57.126;24.288;2022-12-18T09:09:49;36.97;;;18.98;;
51780;SDS011;37844;57.126;24.288;2022-12-18T09:12:14;38.95;;;17.60;;
51780;SDS011;37844;57.126;24.288;2022-12-18T09:14:39;37.00;;;18.63;;
51780;SDS011;37844;57.126;24.288;2022-12-18T09:17:05;35.40;;;18.70;;
51780;SDS011;37844;57.126;24.288;2022-12-18T09:19:30;41.20;;;21.02;;
51780;SDS011;37844;57.126;24.288;2022-12-18T09:21:56;38.63;;;21.70;;
51780;SDS011;37844;57.126;24.288;2022-12-18T09:24:21;37.38;;;20.40;;
51780;SDS011;37844;57.126;24.288;2022-12-18T09:26:48;35.45;;;18.77;;
51780;SDS011;37844;57.126;24.288;2022-12-18T09:29:17;38.65;;;20.90;;
51780;SDS011;37844;57.126;24.288;2022-12-18T09:31:43;35.88;;;19.38;;
51780;SDS011;37844;57.126;24.288;2022-12-18T09:34:08;37.38;;;19.02;;
51780;SDS011;37844;57.126;24.288;2022-12-18T09:36:33;34.67;;;19.33;;
51780;SDS011;37844;57.126;24.288;2022-12-18T09:38:59;39.25;;;20.80;;
51780;SDS011;37844;57.126;24.288;2022-12-18T09:41:41;37.05;;;19.42;;
51780;SDS011;37844;57.126;24.288;2022-12-18T09:46:52;35.97;;;19.45;;
51780;SDS011;37844;57.126;24.288;2022-12-18T09:49:23;43.30;;;22.10;;
51780;SDS011;37844;57.126;24.288;2022-12-18T09:54:22;38.47;;;19.42;;
51780;SDS011;37844;57.126;24.288;2022-12-18T09:56:52;36.45;;;18.98;;
51780;SDS011;37844;57.126;24.288;2022-12-18T09:59:27;34.20;;;19.60;;
51780;SDS011;37844;57.126;24.288;2022-12-18T10:01:58;44.03;;;20.20;;
51780;SDS011;37844;57.126;24.288;2022-12-18T10:04:24;45.10;;;25.13;;
51780;SDS011;37844;57.126;24.288;2022-12-18T10:06:55;36.55;;;20.98;;
51780;SDS011;37844;57.126;24.288;2022-12-18T10:09:31;39.03;;;20.02;;
51780;SDS011;37844;57.126;24.288;2022-12-18T10:14:48;38.08;;;21.42;;
51780;SDS011;37844;57.126;24.288;2022-12-18T10:20:21;39.28;;;22.67;;
51780;SDS011;37844;57.126;24.288;2022-12-18T10:28:15;37.85;;;22.38;;
51780;SDS011;37844;57.126;24.288;2022-12-18T10:30:43;37.10;;;21.10;;
51780;SDS011;37844;57.126;24.288;2022-12-18T10:33:16;51.63;;;24.70;;
51780;SDS011;37844;57.126;24.288;2022-12-18T10:35:43;44.70;;;23.48;;
51780;SDS011;37844;57.126;24.288;2022-12-18T10:43:25;36.03;;;21.17;;
51780;SDS011;37844;57.126;24.288;2022-12-18T10:45:58;46.07;;;22.83;;
51780;SDS011;37844;57.126;24.288;2022-12-18T10:48:24;35.63;;;21.25;;
51780;SDS011;37844;57.126;24.288;2022-12-18T10:50:50;40.22;;;23.25;;
51780;SDS011;37844;57.126;24.288;2022-12-18T10:53:21;36.88;;;21.52;;
51780;SDS011;37844;57.126;24.288;2022-12-18T10:55:55;37.67;;;20.23;;
51780;SDS011;37844;57.126;24.288;2022-12-18T11:01:15;40.35;;;21.98;;
51780;SDS011;37844;57.126;24.288;2022-12-18T11:06:27;35.58;;;20.15;;
51780;SDS011;37844;57.126;24.288;2022-12-18T11:09:03;36.05;;;21.20;;
51780;SDS011;37844;57.126;24.288;2022-12-18T11:11:31;32.38;;;19.30;;
51780;SDS011;37844;57.126;24.288;2022-12-18T11:13:59;43.90;;;23.40;;
51780;SDS011;37844;57.126;24.288;2022-12-18T11:16:47;37.20;;;20.10;;
51780;SDS011;37844;57.126;24.288;2022-12-18T11:21:55;41.60;;;21.73;;
51780;SDS011;37844;57.126;24.288;2022-12-18T11:24:31;37.97;;;22.00;;
51780;SDS011;37844;57.126;24.288;2022-12-18T11:27:03;43.92;;;21.25;;
51780;SDS011;37844;57.126;24.288;2022-12-18T11:32:21;41.25;;;20.15;;
51780;SDS011;37844;57.126;24.288;2022-12-18T11:35:04;37.72;;;20.98;;
51780;SDS011;37844;57.126;24.288;2022-12-18T11:37:43;39.88;;;21.95;;
51780;SDS011;37844;57.126;24.288;2022-12-18T11:40:19;38.40;;;22.27;;
51780;SDS011;37844;57.126;24.288;2022-12-18T11:43:02;42.42;;;21.42;;
51780;SDS011;37844;57.126;24.288;2022-12-18T11:45:34;44.33;;;21.80;;
51780;SDS011;37844;57.126;24.288;2022-12-18T11:48:13;35.30;;;20.67;;
51780;SDS011;37844;57.126;24.288;2022-12-18T11:50:59;47.63;;;24.25;;
51780;SDS011;37844;57.126;24.288;2022-12-18T11:53:28;39.03;;;21.48;;
51780;SDS011;37844;57.126;24.288;2022-12-18T12:34:07;39.42;;;23.90;;
51780;SDS011;37844;57.126;24.288;2022-12-18T12:39:18;43.75;;;23.42;;
51780;SDS011;37844;57.126;24.288;2022-12-18T12:41:53;40.03;;;21.98;;
51780;SDS011;37844;57.126;24.288;2022-12-18T12:44:39;35.33;;;22.50;;
51780;SDS011;37844;57.126;24.288;2022-12-18T12:47:24;36.95;;;22.00;;
51780;SDS011;37844;57.126;24.288;2022-12-18T12:49:53;41.45;;;23.63;;
51780;SDS011;37844;57.126;24.288;2022-12-18T12:55:30;50.85;;;28.95;;
51780;SDS011;37844;57.126;24.288;2022-12-18T13:00:38;39.88;;;23.13;;
51780;SDS011;37844;57.126;24.288;2022-12-18T13:03:13;46.17;;;24.98;;
51780;SDS011;37844;57.126;24.288;2022-12-18T13:05:58;49.97;;;27.67;;
51780;SDS011;37844;57.126;24.288;2022-12-18T13:08:29;41.63;;;25.83;;
51780;SDS011;37844;57.126;24.288;2022-12-18T13:10:57;45.88;;;26.52;;
51780;SDS011;37844;57.126;24.288;2022-12-18T13:13:51;39.20;;;23.55;;
51780;SDS011;37844;57.126;24.288;2022-12-18T13:16:19;44.08;;;22.60;;
51780;SDS011;37844;57.126;24.288;2022-12-18T13:18:50;41.63;;;23.02;;
51780;SDS011;37844;57.126;24.288;2022-12-18T13:21:21;35.80;;;21.75;;
51780;SDS011;37844;57.126;24.288;2022-12-18T13:23:53;39.85;;;23.67;;
51780;SDS011;37844;57.126;24.288;2022-12-18T13:28:50;46.03;;;23.52;;
51780;SDS011;37844;57.126;24.288;2022-12-18T13:36:45;45.08;;;22.50;;
51780;SDS011;37844;57.126;24.288;2022-12-18T13:41:44;40.40;;;24.52;;
51780;SDS011;37844;57.126;24.288;2022-12-18T13:44:12;51.05;;;28.67;;
51780;SDS011;37844;57.126;24.288;2022-12-18T13:46:48;55.42;;;31.90;;
51780;SDS011;37844;57.126;24.288;2022-12-18T13:49:22;67.07;;;37.55;;
51780;SDS011;37844;57.126;24.288;2022-12-18T13:51:52;55.00;;;30.80;;
51780;SDS011;37844;57.126;24.288;2022-12-18T13:56:53;41.92;;;26.33;;
51780;SDS011;37844;57.126;24.288;2022-12-18T14:01:45;45.05;;;24.67;;
51780;SDS011;37844;57.126;24.288;2022-12-18T14:06:46;43.28;;;22.88;;
51780;SDS011;37844;57.126;24.288;2022-12-18T14:09:13;36.03;;;21.33;;
51780;SDS011;37844;57.126;24.288;2022-12-18T14:11:40;44.83;;;21.90;;
51780;SDS011;37844;57.126;24.288;2022-12-18T14:14:13;40.83;;;24.15;;
51780;SDS011;37844;57.126;24.288;2022-12-18T14:16:41;44.28;;;26.33;;
51780;SDS011;37844;57.126;24.288;2022-12-18T14:19:12;44.85;;;23.25;;
51780;SDS011;37844;57.126;24.288;2022-12-18T14:21:44;40.55;;;21.27;;
51780;SDS011;37844;57.126;24.288;2022-12-18T14:24:15;42.45;;;21.65;;
51780;SDS011;37844;57.126;24.288;2022-12-18T14:26:44;47.95;;;22.60;;
51780;SDS011;37844;57.126;24.288;2022-12-18T14:29:29;42.80;;;24.27;;
51780;SDS011;37844;57.126;24.288;2022-12-18T14:32:05;45.63;;;20.52;;
51780;SDS011;37844;57.126;24.288;2022-12-18T14:34:32;36.67;;;21.20;;
51780;SDS011;37844;57.126;24.288;2022-12-18T14:36:57;39.65;;;22.02;;
51780;SDS011;37844;57.126;24.288;2022-12-18T14:39:23;44.20;;;23.45;;
51780;SDS011;37844;57.126;24.288;2022-12-18T14:41:50;36.40;;;20.38;;
51780;SDS011;37844;57.126;24.288;2022-12-18T14:44:16;40.60;;;22.08;;
51780;SDS011;37844;57.126;24.288;2022-12-18T14:46:42;38.78;;;21.73;;
51780;SDS011;37844;57.126;24.288;2022-12-18T14:54:45;37.90;;;21.23;;
51780;SDS011;37844;57.126;24.288;2022-12-18T14:57:21;43.05;;;19.65;;
51780;SDS011;37844;57.126;24.288;2022-12-18T14:59:48;44.50;;;22.17;;
51780;SDS011;37844;57.126;24.288;2022-12-18T15:02:19;37.90;;;19.35;;
51780;SDS011;37844;57.126;24.288;2022-12-18T15:05:03;45.08;;;21.70;;
51780;SDS011;37844;57.126;24.288;2022-12-18T15:07:50;39.55;;;22.40;;
51780;SDS011;37844;57.126;24.288;2022-12-18T15:10:24;49.38;;;22.35;;
51780;SDS011;37844;57.126;24.288;2022-12-18T15:20:32;49.28;;;24.00;;
51780;SDS011;37844;57.126;24.288;2022-12-18T15:23:14;44.05;;;21.30;;
51780;SDS011;37844;57.126;24.288;2022-12-18T15:26:00;43.80;;;21.45;;
51780;SDS011;37844;57.126;24.288;2022-12-18T15:28:49;35.17;;;20.02;;
51780;SDS011;37844;57.126;24.288;2022-12-18T15:36:17;37.88;;;20.02;;
51780;SDS011;37844;57.126;24.288;2022-12-18T15:38:47;41.47;;;22.70;;
51780;SDS011;37844;57.126;24.288;2022-12-18T15:41:14;37.38;;;19.95;;
51780;SDS011;37844;57.126;24.288;2022-12-18T15:43:41;39.13;;;19.80;;
51780;SDS011;37844;57.126;24.288;2022-12-18T15:46:09;36.30;;;19.77;;
51780;SDS011;37844;57.126;24.288;2022-12-18T15:48:39;38.83;;;20.42;;
51780;SDS011;37844;57.126;24.288;2022-12-18T15:51:16;39.40;;;20.88;;
51780;SDS011;37844;57.126;24.288;2022-12-18T15:53:46;35.20;;;19.05;;
51780;SDS011;37844;57.126;24.288;2022-12-18T15:56:16;51.90;;;18.88;;
51780;SDS011;37844;57.126;24.288;2022-12-18T15:59:00;37.42;;;18.77;;
51780;SDS011;37844;57.126;24.288;2022-12-18T16:01:27;31.95;;;17.55;;
51780;SDS011;37844;57.126;24.288;2022-12-18T16:03:54;41.47;;;20.73;;
51780;SDS011;37844;57.126;24.288;2022-12-18T16:06:21;34.80;;;18.48;;
51780;SDS011;37844;57.126;24.288;2022-12-18T16:08:47;41.80;;;18.90;;
51780;SDS011;37844;57.126;24.288;2022-12-18T16:11:23;51.35;;;20.75;;
51780;SDS011;37844;57.126;24.288;2022-12-18T16:16:44;34.15;;;17.88;;
51780;SDS011;37844;57.126;24.288;2022-12-18T16:19:10;33.05;;;18.73;;
51780;SDS011;37844;57.126;24.288;2022-12-18T16:21:36;29.48;;;17.98;;
51780;SDS011;37844;57.126;24.288;2022-12-18T16:24:02;32.25;;;17.55;;
51780;SDS011;37844;57.126;24.288;2022-12-18T16:26:27;30.02;;;15.30;;
51780;SDS011;37844;57.126;24.288;2022-12-18T16:28:53;31.98;;;18.33;;
51780;SDS011;37844;57.126;24.288;2022-12-18T16:31:18;31.98;;;16.42;;
51780;SDS011;37844;57.126;24.288;2022-12-18T16:33:44;26.20;;;15.45;;
51780;SDS011;37844;57.126;24.288;2022-12-18T16:36:09;34.47;;;17.55;;
51780;SDS011;37844;57.126;24.288;2022-12-18T16:38:35;28.27;;;16.55;;
51780;SDS011;37844;57.126;24.288;2022-12-18T16:41:00;32.45;;;17.02;;
51780;SDS011;37844;57.126;24.288;2022-12-18T16:43:44;27.63;;;15.45;;
51780;SDS011;37844;57.126;24.288;2022-12-18T16:46:09;30.05;;;16.48;;
51780;SDS011;37844;57.126;24.288;2022-12-18T16:48:35;32.05;;;13.50;;